Time;durP1;ratioP1;P1;durP2;ratioP2;P2;SDS_P1;SDS_P2;PMS_P1;PMS_P2;Temp;Humidity;BMP_temperature;BMP_pressure;BME280_temperature;BME280_humidity;BME280_pressure;Samples;Min_cycle;Max_cycle;Signal;HPM_P1;HPM_P2
2023/12/23 00:01:30;;;;;;;13.93;1.30;;;;;;;;;;4997983;28;20033;-61
2023/12/23 00:03:56;;;;;;;11.10;1.02;;;;;;;;;;4993624;28;20192;-61
2023/12/23 00:06:22;;;;;;;8.98;1.02;;;;;;;;;;4994433;28;20121;-61
2023/12/23 00:08:48;;;;;;;8.43;1.13;;;;;;;;;;4991949;28;20396;-61
2023/12/23 00:11:13;;;;;;;14.18;1.92;;;;;;;;;;4989381;28;20046;-61
2023/12/23 00:13:40;;;;;;;18.08;1.70;;;;;;;;;;4989109;28;20054;-61
2023/12/23 00:16:06;;;;;;;12.43;1.63;;;;;;;;;;4986741;28;20497;-62
2023/12/23 00:18:32;;;;;;;13.75;1.02;;;;;;;;;;4986555;28;20039;-61
2023/12/23 00:20:58;;;;;;;17.25;1.65;;;;;;;;;;4984157;28;20332;-61
2023/12/23 00:23:24;;;;;;;14.10;1.48;;;;;;;;;;5000647;28;20096;-61
2023/12/23 00:25:50;;;;;;;11.25;1.02;;;;;;;;;;5000875;28;20056;-61
2023/12/23 00:28:16;;;;;;;16.08;1.77;;;;;;;;;;4997430;28;20189;-62
2023/12/23 00:30:42;;;;;;;28.05;2.08;;;;;;;;;;4999945;28;20384;-61
2023/12/23 00:33:08;;;;;;;19.73;1.25;;;;;;;;;;4997206;28;20054;-62
2023/12/23 00:35:34;;;;;;;16.08;2.50;;;;;;;;;;4999637;28;20489;-62
2023/12/23 00:38:00;;;;;;;12.82;1.88;;;;;;;;;;5001946;28;20064;-62
2023/12/23 00:40:26;;;;;;;9.68;1.48;;;;;;;;;;4995918;28;20049;-62
2023/12/23 00:42:52;;;;;;;14.77;1.52;;;;;;;;;;4997692;28;20539;-62
2023/12/23 00:45:18;;;;;;;12.25;1.60;;;;;;;;;;4993620;28;20306;-61
2023/12/23 00:47:44;;;;;;;15.25;1.48;;;;;;;;;;4994682;28;20046;-61
2023/12/23 00:50:10;;;;;;;13.88;1.98;;;;;;;;;;4989985;28;20130;-62
2023/12/23 00:52:36;;;;;;;12.65;1.17;;;;;;;;;;4990931;28;20046;-62
2023/12/23 00:55:02;;;;;;;8.32;0.75;;;;;;;;;;4988933;28;20045;-62
2023/12/23 00:57:28;;;;;;;13.70;1.25;;;;;;;;;;4985944;28;20069;-61
2023/12/23 00:59:57;;;;;;;16.00;1.70;;;;;;;;;;4991423;28;20049;-61
2023/12/23 01:02:23;;;;;;;11.02;1.25;;;;;;;;;;4992760;28;20046;-62
2023/12/23 01:04:50;;;;;;;15.15;1.60;;;;;;;;;;4993838;28;20054;-61
2023/12/23 01:07:16;;;;;;;11.50;0.95;;;;;;;;;;4990788;28;20042;-61
2023/12/23 01:09:41;;;;;;;10.93;1.15;;;;;;;;;;4991495;28;20045;-62
2023/12/23 01:12:07;;;;;;;18.63;1.88;;;;;;;;;;4998892;28;20455;-61
2023/12/23 01:14:33;;;;;;;12.13;1.45;;;;;;;;;;5001867;28;20053;-62
2023/12/23 01:16:59;;;;;;;18.92;2.50;;;;;;;;;;4999928;28;20048;-61
2023/12/23 01:19:25;;;;;;;8.32;0.70;;;;;;;;;;5000773;28;20052;-62
2023/12/23 01:21:51;;;;;;;13.00;1.00;;;;;;;;;;5001080;28;20046;-62
2023/12/23 01:24:17;;;;;;;7.63;1.13;;;;;;;;;;4999990;28;20104;-61
2023/12/23 01:26:44;;;;;;;13.98;1.60;;;;;;;;;;4997284;28;20054;-61
2023/12/23 01:29:10;;;;;;;15.95;1.80;;;;;;;;;;4999480;28;20057;-62
2023/12/23 01:31:36;;;;;;;12.38;1.38;;;;;;;;;;4999784;28;20451;-62
2023/12/23 01:34:02;;;;;;;15.82;1.50;;;;;;;;;;4996835;28;20088;-61
2023/12/23 01:36:28;;;;;;;11.70;1.38;;;;;;;;;;5000912;28;20598;-62
2023/12/23 01:38:53;;;;;;;14.32;1.10;;;;;;;;;;4993671;28;20508;-62
2023/12/23 01:41:19;;;;;;;12.98;1.40;;;;;;;;;;4995886;28;20111;-62
2023/12/23 01:43:45;;;;;;;14.75;1.17;;;;;;;;;;4991610;28;20078;-62
2023/12/23 01:46:12;;;;;;;13.57;1.20;;;;;;;;;;4999066;28;20042;-62
2023/12/23 01:48:40;;;;;;;9.88;0.80;;;;;;;;;;4999912;28;20088;-62
2023/12/23 01:51:05;;;;;;;14.18;1.52;;;;;;;;;;4998631;28;20057;-62
2023/12/23 01:53:32;;;;;;;7.70;0.80;;;;;;;;;;4983258;28;20038;-62
2023/12/23 01:55:58;;;;;;;8.85;1.55;;;;;;;;;;4997892;28;20092;-62
2023/12/23 01:58:24;;;;;;;10.98;1.08;;;;;;;;;;4997818;28;20100;-62
2023/12/23 02:00:51;;;;;;;7.05;1.00;;;;;;;;;;4994280;28;20034;-61
2023/12/23 02:03:17;;;;;;;7.78;1.60;;;;;;;;;;4993441;28;20108;-62
2023/12/23 02:05:45;;;;;;;8.43;0.55;;;;;;;;;;4993345;28;20466;-62
2023/12/23 02:08:12;;;;;;;10.80;1.45;;;;;;;;;;4991979;28;20057;-62
2023/12/23 02:10:38;;;;;;;10.35;1.08;;;;;;;;;;4995375;28;20046;-62
2023/12/23 02:13:23;;;;;;;7.53;1.02;;;;;;;;;;4985615;28;20150;-62
2023/12/23 02:15:49;;;;;;;9.48;1.00;;;;;;;;;;4983221;28;20105;-61
2023/12/23 02:18:16;;;;;;;12.63;0.90;;;;;;;;;;4995230;28;20049;-61
2023/12/23 02:20:42;;;;;;;11.48;1.42;;;;;;;;;;5000332;28;20100;-61
2023/12/23 02:23:08;;;;;;;15.05;1.45;;;;;;;;;;5001107;28;20061;-62
2023/12/23 02:25:34;;;;;;;22.08;2.08;;;;;;;;;;4997507;28;20092;-61
2023/12/23 02:28:04;;;;;;;12.02;1.27;;;;;;;;;;4998001;28;20053;-61
2023/12/23 02:30:30;;;;;;;8.25;0.95;;;;;;;;;;4995869;28;20037;-61
2023/12/23 02:32:57;;;;;;;12.45;1.00;;;;;;;;;;5001256;28;20128;-61
2023/12/23 02:35:26;;;;;;;4.03;0.55;;;;;;;;;;4991824;28;20137;-61
2023/12/23 02:37:54;;;;;;;7.38;0.88;;;;;;;;;;4995605;28;20042;-61
2023/12/23 02:40:21;;;;;;;6.38;0.40;;;;;;;;;;4992930;28;20050;-61
2023/12/23 02:42:47;;;;;;;10.25;0.70;;;;;;;;;;4994374;28;20088;-61
2023/12/23 02:45:13;;;;;;;6.28;0.80;;;;;;;;;;4994259;28;20045;-61
2023/12/23 02:47:39;;;;;;;10.23;0.93;;;;;;;;;;4990222;28;20041;-62
2023/12/23 02:50:05;;;;;;;8.07;0.88;;;;;;;;;;4985576;28;20042;-61
2023/12/23 02:52:31;;;;;;;9.85;1.05;;;;;;;;;;4987270;28;20050;-62
2023/12/23 02:54:57;;;;;;;6.03;0.82;;;;;;;;;;4983231;28;20656;-62
2023/12/23 02:57:23;;;;;;;8.43;0.75;;;;;;;;;;4995622;28;20050;-62
2023/12/23 02:59:49;;;;;;;16.50;1.17;;;;;;;;;;4986563;28;20050;-62
2023/12/23 03:02:15;;;;;;;5.85;1.05;;;;;;;;;;4992469;28;20455;-61
2023/12/23 03:04:41;;;;;;;11.57;1.75;;;;;;;;;;4994204;28;20050;-62
2023/12/23 03:07:08;;;;;;;6.70;0.88;;;;;;;;;;4997063;28;20909;-61
2023/12/23 03:09:35;;;;;;;10.52;1.20;;;;;;;;;;4997445;28;20089;-61
2023/12/23 03:12:01;;;;;;;5.97;0.88;;;;;;;;;;4989012;28;20043;-61
2023/12/23 03:14:27;;;;;;;6.00;0.80;;;;;;;;;;4997253;28;20054;-62
2023/12/23 03:16:53;;;;;;;9.27;1.35;;;;;;;;;;4993937;28;20045;-61
2023/12/23 03:19:19;;;;;;;9.90;0.80;;;;;;;;;;5003471;28;20133;-62
2023/12/23 03:21:46;;;;;;;5.70;0.70;;;;;;;;;;5002739;28;20142;-62
2023/12/23 03:24:12;;;;;;;8.25;0.95;;;;;;;;;;5003932;28;20057;-62
2023/12/23 03:26:38;;;;;;;13.35;0.90;;;;;;;;;;5001323;28;20096;-62
2023/12/23 03:29:07;;;;;;;9.38;0.85;;;;;;;;;;5002725;28;20042;-62
2023/12/23 03:31:33;;;;;;;12.18;0.70;;;;;;;;;;4986227;28;20054;-62
2023/12/23 03:34:00;;;;;;;8.45;1.00;;;;;;;;;;4998381;28;20050;-62
2023/12/23 03:36:27;;;;;;;5.55;0.55;;;;;;;;;;5003022;28;20034;-62
2023/12/23 03:38:53;;;;;;;6.03;0.80;;;;;;;;;;4994763;28;20056;-62
2023/12/23 03:41:19;;;;;;;8.57;1.15;;;;;;;;;;5001477;28;20068;-62
2023/12/23 03:43:45;;;;;;;10.48;1.05;;;;;;;;;;4991784;28;20412;-62
2023/12/23 03:46:11;;;;;;;8.13;0.60;;;;;;;;;;4995027;28;20100;-62
2023/12/23 03:48:37;;;;;;;9.20;0.73;;;;;;;;;;4988092;28;20077;-61
2023/12/23 03:51:03;;;;;;;6.95;0.73;;;;;;;;;;4992174;28;20554;-62
2023/12/23 03:53:29;;;;;;;10.43;0.90;;;;;;;;;;4997102;28;20042;-62
2023/12/23 03:55:55;;;;;;;8.80;1.08;;;;;;;;;;4987131;28;20049;-62
2023/12/23 03:58:21;;;;;;;8.30;1.70;;;;;;;;;;4984178;28;20570;-62
2023/12/23 04:00:47;;;;;;;2.42;0.40;;;;;;;;;;4998562;28;20045;-62
2023/12/23 04:03:13;;;;;;;8.23;1.00;;;;;;;;;;4998765;28;20058;-62
2023/12/23 04:05:39;;;;;;;3.67;0.50;;;;;;;;;;4995247;28;20042;-62
2023/12/23 04:08:06;;;;;;;6.57;0.50;;;;;;;;;;5002054;28;20048;-62
2023/12/23 04:10:32;;;;;;;5.78;0.60;;;;;;;;;;4990216;28;20530;-61
2023/12/23 04:12:58;;;;;;;6.95;0.88;;;;;;;;;;5000337;28;20825;-62
2023/12/23 04:15:24;;;;;;;5.00;0.45;;;;;;;;;;4991868;28;20043;-61
2023/12/23 04:17:50;;;;;;;2.90;0.40;;;;;;;;;;4989112;28;20058;-62
2023/12/23 04:20:16;;;;;;;9.13;0.70;;;;;;;;;;5003161;28;20119;-62
2023/12/23 04:22:44;;;;;;;4.55;0.73;;;;;;;;;;5002784;28;20490;-62
2023/12/23 04:25:10;;;;;;;5.50;0.63;;;;;;;;;;4998637;28;20050;-61
2023/12/23 04:27:36;;;;;;;1.92;0.30;;;;;;;;;;5000283;28;20288;-61
2023/12/23 04:30:03;;;;;;;5.50;0.50;;;;;;;;;;4998037;28;20038;-62
2023/12/23 04:32:29;;;;;;;8.18;0.40;;;;;;;;;;4998587;28;20074;-61
2023/12/23 04:34:55;;;;;;;3.55;0.45;;;;;;;;;;4995011;28;20076;-62
2023/12/23 04:37:21;;;;;;;3.75;0.55;;;;;;;;;;4994281;28;20041;-61
2023/12/23 04:39:47;;;;;;;4.85;0.52;;;;;;;;;;4994616;28;20496;-62
2023/12/23 04:42:13;;;;;;;4.13;0.57;;;;;;;;;;4995936;28;20114;-62
2023/12/23 04:44:40;;;;;;;5.13;1.35;;;;;;;;;;4999241;28;20120;-61
2023/12/23 04:47:06;;;;;;;5.68;0.40;;;;;;;;;;4987197;28;20881;-62
2023/12/23 04:49:32;;;;;;;3.85;0.70;;;;;;;;;;4998189;28;20561;-61
2023/12/23 04:51:58;;;;;;;7.22;1.20;;;;;;;;;;4993810;28;20050;-61
2023/12/23 04:54:24;;;;;;;1.85;0.70;;;;;;;;;;4988696;28;20125;-62
2023/12/23 04:56:50;;;;;;;7.90;0.80;;;;;;;;;;4992580;28;20065;-62
2023/12/23 04:59:16;;;;;;;5.22;0.60;;;;;;;;;;4999259;28;20070;-62
2023/12/23 05:01:42;;;;;;;2.70;0.60;;;;;;;;;;4998418;28;20080;-62
2023/12/23 05:04:08;;;;;;;1.70;0.40;;;;;;;;;;4996130;28;20046;-62
2023/12/23 05:06:34;;;;;;;2.92;0.63;;;;;;;;;;4997006;28;20049;-62
2023/12/23 05:09:00;;;;;;;1.98;0.65;;;;;;;;;;4995922;28;20088;-62
2023/12/23 05:11:26;;;;;;;3.10;0.80;;;;;;;;;;4994792;28;20124;-62
2023/12/23 05:13:52;;;;;;;3.30;0.80;;;;;;;;;;4996583;28;20507;-62
2023/12/23 05:16:18;;;;;;;3.47;0.60;;;;;;;;;;4990078;28;20129;-62
2023/12/23 05:18:44;;;;;;;5.35;1.13;;;;;;;;;;4991981;28;20044;-61
2023/12/23 05:21:10;;;;;;;3.67;0.80;;;;;;;;;;5002375;28;20057;-62
2023/12/23 05:23:36;;;;;;;4.43;0.90;;;;;;;;;;4999776;28;20060;-61
2023/12/23 05:26:02;;;;;;;2.67;0.40;;;;;;;;;;4999666;28;20045;-62
2023/12/23 05:28:28;;;;;;;3.10;0.70;;;;;;;;;;4995053;28;20039;-62
2023/12/23 05:30:54;;;;;;;0.65;0.22;;;;;;;;;;4998378;28;20077;-62
2023/12/23 05:33:24;;;;;;;3.22;0.52;;;;;;;;;;4993786;28;20049;-62
2023/12/23 05:35:50;;;;;;;1.50;0.45;;;;;;;;;;4994042;28;20045;-63
2023/12/23 05:38:16;;;;;;;2.00;0.40;;;;;;;;;;4998402;28;20061;-61
2023/12/23 05:40:42;;;;;;;1.00;0.50;;;;;;;;;;5000314;28;20042;-61
2023/12/23 05:43:08;;;;;;;7.10;0.60;;;;;;;;;;5000329;28;20053;-61
2023/12/23 05:45:34;;;;;;;0.77;0.50;;;;;;;;;;5001880;28;20709;-61
2023/12/23 05:48:00;;;;;;;3.35;0.57;;;;;;;;;;5001353;28;20042;-61
2023/12/23 05:50:26;;;;;;;1.17;0.55;;;;;;;;;;4990085;28;20069;-61
2023/12/23 05:52:52;;;;;;;0.28;0.20;;;;;;;;;;5000345;28;20037;-60
2023/12/23 05:55:19;;;;;;;1.25;0.20;;;;;;;;;;5000346;28;20046;-61
2023/12/23 05:57:45;;;;;;;2.65;0.60;;;;;;;;;;5001904;28;20045;-62
2023/12/23 06:00:11;;;;;;;3.92;0.80;;;;;;;;;;4996952;28;20100;-61
2023/12/23 06:02:37;;;;;;;4.78;0.65;;;;;;;;;;4999626;28;20088;-61
2023/12/23 06:05:04;;;;;;;4.07;0.65;;;;;;;;;;4996712;28;20054;-61
2023/12/23 06:07:30;;;;;;;2.45;0.65;;;;;;;;;;4989468;28;20049;-62
2023/12/23 06:09:56;;;;;;;15.82;1.90;;;;;;;;;;4995548;28;20072;-64
2023/12/23 06:12:23;;;;;;;18.40;4.95;;;;;;;;;;4992065;28;20046;-62
2023/12/23 06:14:50;;;;;;;9.98;2.20;;;;;;;;;;4994122;28;20049;-61
2023/12/23 06:17:16;;;;;;;14.85;2.28;;;;;;;;;;4995105;28;20107;-62
2023/12/23 06:19:42;;;;;;;14.98;2.50;;;;;;;;;;5001322;28;20042;-61
2023/12/23 06:22:08;;;;;;;15.85;2.22;;;;;;;;;;4998720;28;20046;-61
2023/12/23 06:24:34;;;;;;;17.23;2.67;;;;;;;;;;5000766;28;20049;-61
2023/12/23 06:27:00;;;;;;;20.63;3.17;;;;;;;;;;4998086;28;20146;-61
2023/12/23 06:29:26;;;;;;;19.73;3.63;;;;;;;;;;5000827;28;20067;-61
2023/12/23 06:31:52;;;;;;;17.98;3.03;;;;;;;;;;4998117;28;20050;-62
2023/12/23 06:34:18;;;;;;;17.52;4.13;;;;;;;;;;4996230;28;20052;-61
2023/12/23 06:36:44;;;;;;;24.52;3.78;;;;;;;;;;4999309;28;20042;-61
2023/12/23 06:39:10;;;;;;;17.27;2.65;;;;;;;;;;4998948;28;20243;-61
2023/12/23 06:41:36;;;;;;;29.05;4.05;;;;;;;;;;4995860;28;20038;-59
2023/12/23 06:44:02;;;;;;;21.95;3.65;;;;;;;;;;4996345;28;20104;-60
2023/12/23 06:46:28;;;;;;;19.00;3.47;;;;;;;;;;4995995;28;20041;-60
2023/12/23 06:48:54;;;;;;;22.30;3.85;;;;;;;;;;4996440;28;20061;-60
2023/12/23 06:51:20;;;;;;;28.20;3.95;;;;;;;;;;5004837;28;20049;-60
2023/12/23 06:53:48;;;;;;;19.67;3.20;;;;;;;;;;4998464;28;20038;-60
2023/12/23 06:56:14;;;;;;;20.20;2.97;;;;;;;;;;4997041;28;20048;-60
2023/12/23 06:58:39;;;;;;;18.15;3.40;;;;;;;;;;4999033;28;20050;-60
2023/12/23 07:01:05;;;;;;;25.80;3.40;;;;;;;;;;4997862;28;20373;-60
2023/12/23 07:03:31;;;;;;;28.48;2.97;;;;;;;;;;4999353;28;20184;-60
2023/12/23 07:05:57;;;;;;;25.98;3.67;;;;;;;;;;4997992;28;21055;-60
2023/12/23 07:08:23;;;;;;;21.23;3.92;;;;;;;;;;5005074;28;20515;-61
2023/12/23 07:10:50;;;;;;;9.88;1.50;;;;;;;;;;4990958;28;20050;-61
2023/12/23 07:13:17;;;;;;;17.88;2.28;;;;;;;;;;5003865;28;20038;-60
2023/12/23 07:15:43;;;;;;;25.42;4.05;;;;;;;;;;4991671;28;20046;-61
2023/12/23 07:18:10;;;;;;;20.00;3.28;;;;;;;;;;4996891;28;20049;-60
2023/12/23 07:20:36;;;;;;;3.17;0.60;;;;;;;;;;5001623;28;20120;-60
2023/12/23 07:23:02;;;;;;;12.52;1.42;;;;;;;;;;4995083;28;20488;-61
2023/12/23 07:25:28;;;;;;;1.08;0.32;;;;;;;;;;4997229;28;20053;-61
2023/12/23 07:27:54;;;;;;;13.75;2.72;;;;;;;;;;4993465;28;20034;-61
2023/12/23 07:30:19;;;;;;;13.60;3.20;;;;;;;;;;5002616;28;20145;-61
2023/12/23 07:32:45;;;;;;;11.23;1.85;;;;;;;;;;4999513;28;20045;-60
2023/12/23 07:35:12;;;;;;;8.65;0.80;;;;;;;;;;4997665;28;20500;-61
2023/12/23 07:37:38;;;;;;;4.75;0.90;;;;;;;;;;5002875;28;20065;-61
2023/12/23 07:40:05;;;;;;;3.58;0.73;;;;;;;;;;4992020;28;20065;-60
2023/12/23 07:42:31;;;;;;;2.80;0.50;;;;;;;;;;4994929;28;20064;-60
2023/12/23 07:44:57;;;;;;;1.02;0.40;;;;;;;;;;4995312;28;20056;-60
2023/12/23 07:47:23;;;;;;;3.00;0.65;;;;;;;;;;5001532;28;20458;-60
2023/12/23 07:49:49;;;;;;;2.38;0.30;;;;;;;;;;4996111;28;20046;-61
2023/12/23 07:52:15;;;;;;;1.27;0.30;;;;;;;;;;4996183;28;20048;-60
2023/12/23 07:54:41;;;;;;;2.45;0.28;;;;;;;;;;4993845;28;20052;-61
2023/12/23 07:57:07;;;;;;;3.17;1.58;;;;;;;;;;4994862;28;20125;-61
2023/12/23 07:59:33;;;;;;;3.00;1.20;;;;;;;;;;4993213;28;20050;-62
2023/12/23 08:01:59;;;;;;;7.40;3.35;;;;;;;;;;4998248;28;20123;-61
2023/12/23 08:04:25;;;;;;;3.58;1.30;;;;;;;;;;4997886;28;20054;-62
2023/12/23 08:06:52;;;;;;;3.40;0.30;;;;;;;;;;4999875;28;20041;-62
2023/12/23 08:09:18;;;;;;;3.17;0.98;;;;;;;;;;4996692;28;20069;-61
2023/12/23 08:11:44;;;;;;;2.45;0.60;;;;;;;;;;5002051;28;20042;-61
2023/12/23 08:14:11;;;;;;;0.55;0.30;;;;;;;;;;5000125;28;20034;-62
2023/12/23 08:16:37;;;;;;;0.95;0.38;;;;;;;;;;4998673;28;20104;-62
2023/12/23 08:19:03;;;;;;;2.70;0.85;;;;;;;;;;5004293;28;20037;-63
2023/12/23 08:21:29;;;;;;;0.85;0.30;;;;;;;;;;5006699;28;20128;-63
2023/12/23 08:23:55;;;;;;;3.63;2.55;;;;;;;;;;5002985;28;20117;-63
2023/12/23 08:26:21;;;;;;;2.28;0.68;;;;;;;;;;4999488;28;20042;-62
2023/12/23 08:28:47;;;;;;;1.80;0.75;;;;;;;;;;4999255;28;20046;-61
2023/12/23 08:31:13;;;;;;;5.43;3.10;;;;;;;;;;4988336;28;20061;-61
2023/12/23 08:33:39;;;;;;;14.93;10.10;;;;;;;;;;4998335;28;20046;-61
2023/12/23 08:36:05;;;;;;;34.60;20.33;;;;;;;;;;4990679;28;20108;-62
2023/12/23 08:38:31;;;;;;;20.30;14.45;;;;;;;;;;4993848;28;20550;-62
2023/12/23 08:40:57;;;;;;;27.67;17.52;;;;;;;;;;4997151;28;20058;-61
2023/12/23 08:43:23;;;;;;;6.85;5.18;;;;;;;;;;4996922;28;20682;-61
2023/12/23 08:45:49;;;;;;;51.60;37.95;;;;;;;;;;4994586;28;20610;-61
2023/12/23 08:48:15;;;;;;;0.50;0.30;;;;;;;;;;5002741;28;20045;-62
2023/12/23 08:50:41;;;;;;;2.42;1.58;;;;;;;;;;5000347;28;20048;-61
2023/12/23 08:53:07;;;;;;;0.52;0.38;;;;;;;;;;4992285;28;20436;-61
2023/12/23 08:55:33;;;;;;;0.20;0.20;;;;;;;;;;4993984;28;20690;-61
2023/12/23 08:57:59;;;;;;;1.60;0.60;;;;;;;;;;5002659;28;20038;-62
2023/12/23 09:00:25;;;;;;;22.08;13.90;;;;;;;;;;4999090;28;20081;-62
2023/12/23 09:02:51;;;;;;;0.88;0.15;;;;;;;;;;4998850;28;20038;-61
2023/12/23 09:05:17;;;;;;;4.45;2.10;;;;;;;;;;5000752;28;20042;-61
2023/12/23 09:07:43;;;;;;;1.33;0.60;;;;;;;;;;4997701;28;20061;-61
2023/12/23 09:10:09;;;;;;;2.45;1.52;;;;;;;;;;4993128;28;20500;-61
2023/12/23 09:12:36;;;;;;;5.95;3.13;;;;;;;;;;4996404;28;20148;-61
2023/12/23 09:15:03;;;;;;;4.07;0.70;;;;;;;;;;5000075;28;20124;-62
2023/12/23 09:17:29;;;;;;;1.25;0.60;;;;;;;;;;4992658;28;20058;-64
2023/12/23 09:19:55;;;;;;;0.70;0.10;;;;;;;;;;4995794;28;20495;-63
2023/12/23 09:22:22;;;;;;;0.90;0.22;;;;;;;;;;4996554;28;20081;-63
2023/12/23 09:24:47;;;;;;;0.63;0.40;;;;;;;;;;4989854;28;20045;-62
2023/12/23 09:27:13;;;;;;;0.80;0.20;;;;;;;;;;4994612;28;20049;-63
2023/12/23 09:29:39;;;;;;;1.30;0.30;;;;;;;;;;4999234;28;20054;-63
2023/12/23 09:32:06;;;;;;;3.00;0.30;;;;;;;;;;4998468;28;20081;-63
2023/12/23 09:34:32;;;;;;;1.80;0.50;;;;;;;;;;5001045;28;20909;-64
2023/12/23 09:36:59;;;;;;;1.88;0.68;;;;;;;;;;4998531;28;20052;-63
2023/12/23 09:39:25;;;;;;;2.58;0.57;;;;;;;;;;4996162;28;20412;-62
2023/12/23 09:41:51;;;;;;;2.30;0.50;;;;;;;;;;4982723;28;20511;-62
2023/12/23 09:44:17;;;;;;;3.15;0.50;;;;;;;;;;4984240;28;20125;-62
2023/12/23 09:46:43;;;;;;;1.42;0.38;;;;;;;;;;4984579;28;20542;-62
2023/12/23 09:49:09;;;;;;;2.50;0.40;;;;;;;;;;4986039;28;20046;-63
2023/12/23 09:51:35;;;;;;;0.70;0.30;;;;;;;;;;5000985;28;20042;-62
2023/12/23 09:54:05;;;;;;;2.05;0.50;;;;;;;;;;4999437;28;20111;-62
2023/12/23 09:56:32;;;;;;;1.77;0.65;;;;;;;;;;5000966;28;20053;-61
2023/12/23 09:58:58;;;;;;;2.80;1.52;;;;;;;;;;4997573;28;20035;-63
2023/12/23 10:01:24;;;;;;;1.25;0.77;;;;;;;;;;4985636;28;20987;-62
2023/12/23 10:03:51;;;;;;;2.70;1.20;;;;;;;;;;4991630;28;20530;-62
2023/12/23 10:06:18;;;;;;;2.75;1.00;;;;;;;;;;5000525;28;20202;-63
2023/12/23 10:08:44;;;;;;;3.00;1.00;;;;;;;;;;4993783;28;20056;-63
2023/12/23 10:11:10;;;;;;;1.65;1.02;;;;;;;;;;4996749;28;21622;-63
2023/12/23 10:13:37;;;;;;;2.15;0.82;;;;;;;;;;5004023;28;20076;-63
2023/12/23 10:16:03;;;;;;;1.70;0.73;;;;;;;;;;4993723;28;20069;-62
2023/12/23 10:18:31;;;;;;;6.03;2.15;;;;;;;;;;5000761;28;20080;-63
2023/12/23 10:20:58;;;;;;;1.20;0.45;;;;;;;;;;5001609;28;20046;-62
2023/12/23 10:23:23;;;;;;;2.40;0.55;;;;;;;;;;4995991;28;20042;-63
2023/12/23 10:25:52;;;;;;;1.15;0.80;;;;;;;;;;4996448;28;20116;-63
2023/12/23 10:28:22;;;;;;;1.60;0.50;;;;;;;;;;4998672;28;20058;-63
2023/12/23 10:30:48;;;;;;;5.45;0.57;;;;;;;;;;4996456;28;20053;-63
2023/12/23 10:33:17;;;;;;;5.97;0.90;;;;;;;;;;4996473;28;20045;-63
2023/12/23 10:35:46;;;;;;;3.45;0.93;;;;;;;;;;4997454;28;20049;-63
2023/12/23 10:38:16;;;;;;;9.25;1.40;;;;;;;;;;4993337;28;20519;-63
2023/12/23 10:40:47;;;;;;;13.38;1.60;;;;;;;;;;4997472;28;20041;-63
2023/12/23 10:43:14;;;;;;;13.77;1.52;;;;;;;;;;4986231;28;20052;-63
2023/12/23 10:45:42;;;;;;;19.52;2.03;;;;;;;;;;4997256;28;20037;-63
2023/12/23 10:48:09;;;;;;;23.15;2.45;;;;;;;;;;4988587;28;20698;-62
2023/12/23 10:50:35;;;;;;;15.60;2.55;;;;;;;;;;4994609;28;20103;-62
2023/12/23 10:53:02;;;;;;;26.17;3.45;;;;;;;;;;4994040;28;20080;-62
2023/12/23 10:55:28;;;;;;;22.67;3.22;;;;;;;;;;4996587;28;20042;-62
2023/12/23 10:57:56;;;;;;;24.42;3.00;;;;;;;;;;4997317;28;20092;-63
2023/12/23 11:00:21;;;;;;;13.55;2.08;;;;;;;;;;4994964;28;20129;-62
2023/12/23 11:02:49;;;;;;;20.60;2.55;;;;;;;;;;4995507;28;20145;-63
2023/12/23 11:05:16;;;;;;;16.60;2.20;;;;;;;;;;4994321;28;21050;-63
2023/12/23 11:07:44;;;;;;;15.48;2.50;;;;;;;;;;4990043;28;20039;-63
2023/12/23 11:10:12;;;;;;;17.83;1.95;;;;;;;;;;4999137;28;20049;-63
2023/12/23 11:12:39;;;;;;;20.38;2.50;;;;;;;;;;4995139;28;20042;-63
2023/12/23 11:15:05;;;;;;;17.75;3.17;;;;;;;;;;4999394;28;20576;-63
2023/12/23 11:17:31;;;;;;;16.05;2.22;;;;;;;;;;4991495;28;20064;-63
2023/12/23 11:20:01;;;;;;;19.00;3.83;;;;;;;;;;4984372;28;20453;-63
2023/12/23 11:22:36;;;;;;;20.00;2.40;;;;;;;;;;4997276;28;20085;-63
2023/12/23 11:25:03;;;;;;;20.35;2.13;;;;;;;;;;4997617;28;20053;-63
2023/12/23 11:27:37;;;;;;;19.65;2.70;;;;;;;;;;4998307;28;20064;-62
2023/12/23 11:30:04;;;;;;;19.75;2.90;;;;;;;;;;4995363;28;20125;-63
2023/12/23 11:32:36;;;;;;;20.67;2.97;;;;;;;;;;4999100;28;20042;-63
2023/12/23 11:35:03;;;;;;;25.20;2.78;;;;;;;;;;4981348;28;20056;-63
2023/12/23 11:37:48;;;;;;;23.27;2.60;;;;;;;;;;5002873;28;20038;-63
2023/12/23 11:40:15;;;;;;;22.50;3.65;;;;;;;;;;4990836;28;20050;-63
2023/12/23 11:42:42;;;;;;;11.35;2.53;;;;;;;;;;4996019;28;20046;-63
2023/12/23 11:45:09;;;;;;;24.30;2.60;;;;;;;;;;4997360;28;20479;-63
2023/12/23 11:47:35;;;;;;;18.05;2.17;;;;;;;;;;4991966;28;20447;-63
2023/12/23 11:50:01;;;;;;;28.33;3.13;;;;;;;;;;4997467;28;20042;-63
2023/12/23 11:52:27;;;;;;;13.82;1.75;;;;;;;;;;4988064;28;20112;-63
2023/12/23 11:54:53;;;;;;;15.65;2.60;;;;;;;;;;4996644;28;20046;-63
2023/12/23 11:57:19;;;;;;;18.63;2.50;;;;;;;;;;4998168;28;20049;-62
2023/12/23 11:59:45;;;;;;;18.67;2.10;;;;;;;;;;4989509;28;20555;-62
2023/12/23 12:02:12;;;;;;;22.92;2.63;;;;;;;;;;5000289;28;20054;-63
2023/12/23 12:04:38;;;;;;;14.93;1.83;;;;;;;;;;5002583;28;20046;-62
2023/12/23 12:07:04;;;;;;;17.70;2.40;;;;;;;;;;4999629;28;20030;-63
2023/12/23 12:09:30;;;;;;;19.70;2.50;;;;;;;;;;4998111;28;20054;-60
2023/12/23 12:11:56;;;;;;;9.55;2.08;;;;;;;;;;4993393;28;20053;-60
2023/12/23 12:14:22;;;;;;;13.30;1.85;;;;;;;;;;4994477;28;20070;-61
2023/12/23 12:16:48;;;;;;;19.08;2.42;;;;;;;;;;4992117;28;20129;-61
2023/12/23 12:19:15;;;;;;;15.20;1.70;;;;;;;;;;5000579;28;20125;-61
2023/12/23 12:21:41;;;;;;;21.52;2.05;;;;;;;;;;5001923;28;20053;-61
2023/12/23 12:24:07;;;;;;;13.55;1.88;;;;;;;;;;4997523;28;20049;-61
2023/12/23 12:26:34;;;;;;;20.60;2.40;;;;;;;;;;5002778;28;20443;-61
2023/12/23 12:29:00;;;;;;;9.30;1.63;;;;;;;;;;5000936;28;20050;-61
2023/12/23 12:31:26;;;;;;;17.95;1.95;;;;;;;;;;4998929;28;20759;-61
2023/12/23 12:33:52;;;;;;;16.73;1.80;;;;;;;;;;5002306;28;20049;-61
2023/12/23 12:36:18;;;;;;;14.88;1.98;;;;;;;;;;5002765;28;20052;-60
2023/12/23 12:38:45;;;;;;;13.45;2.78;;;;;;;;;;5000256;28;20046;-61
2023/12/23 12:41:12;;;;;;;14.57;1.65;;;;;;;;;;5000751;28;20041;-61
2023/12/23 12:43:42;;;;;;;12.95;2.20;;;;;;;;;;5000760;28;20049;-60
2023/12/23 12:46:08;;;;;;;20.38;2.05;;;;;;;;;;5001601;28;20050;-60
2023/12/23 12:48:34;;;;;;;20.58;2.40;;;;;;;;;;5000314;28;20061;-60
2023/12/23 12:51:00;;;;;;;21.52;2.30;;;;;;;;;;4995875;28;20136;-60
2023/12/23 12:53:28;;;;;;;18.73;2.72;;;;;;;;;;4995015;28;20038;-60
2023/12/23 12:55:54;;;;;;;16.20;1.40;;;;;;;;;;4996259;28;20050;-60
2023/12/23 12:58:20;;;;;;;14.20;1.95;;;;;;;;;;4997482;28;20049;-60
2023/12/23 13:00:46;;;;;;;12.27;1.63;;;;;;;;;;4993542;28;20049;-61
2023/12/23 13:03:13;;;;;;;18.23;1.63;;;;;;;;;;4995969;28;20062;-61
2023/12/23 13:05:39;;;;;;;20.00;2.75;;;;;;;;;;5001428;28;20046;-60
2023/12/23 13:08:05;;;;;;;23.48;2.60;;;;;;;;;;4997509;28;20107;-60
2023/12/23 13:10:31;;;;;;;15.50;1.95;;;;;;;;;;4990672;28;20049;-61
2023/12/23 13:12:57;;;;;;;14.80;2.33;;;;;;;;;;4992088;28;20038;-60
2023/12/23 13:15:23;;;;;;;15.18;2.08;;;;;;;;;;4996986;28;20050;-60
2023/12/23 13:17:49;;;;;;;18.30;2.70;;;;;;;;;;4997145;28;20408;-61
2023/12/23 13:20:15;;;;;;;18.13;2.30;;;;;;;;;;4998085;28;20080;-61
2023/12/23 13:22:41;;;;;;;19.50;3.30;;;;;;;;;;4992692;28;20053;-60
2023/12/23 13:25:09;;;;;;;10.88;1.83;;;;;;;;;;5000147;28;20054;-60
2023/12/23 13:27:35;;;;;;;13.13;1.63;;;;;;;;;;5000074;28;20080;-60
2023/12/23 13:30:01;;;;;;;13.55;2.33;;;;;;;;;;4998755;28;20038;-62
2023/12/23 13:32:27;;;;;;;17.45;1.75;;;;;;;;;;4997290;28;20506;-61
2023/12/23 13:34:54;;;;;;;22.65;2.15;;;;;;;;;;4999554;28;20080;-62
2023/12/23 13:37:20;;;;;;;13.15;1.40;;;;;;;;;;4994016;28;20045;-62
2023/12/23 13:39:46;;;;;;;19.75;1.88;;;;;;;;;;4994547;28;20748;-61
2023/12/23 13:42:12;;;;;;;14.93;2.00;;;;;;;;;;4979910;28;20045;-62
2023/12/23 13:44:38;;;;;;;18.08;2.97;;;;;;;;;;4987847;28;20044;-63
2023/12/23 13:47:05;;;;;;;16.88;2.15;;;;;;;;;;4995431;28;20058;-63
2023/12/23 13:49:31;;;;;;;11.88;1.70;;;;;;;;;;4988694;28;20077;-61
2023/12/23 13:51:57;;;;;;;17.73;2.28;;;;;;;;;;4990566;28;20117;-62
2023/12/23 13:54:23;;;;;;;12.25;1.75;;;;;;;;;;4998469;28;20766;-61
2023/12/23 13:56:50;;;;;;;21.85;2.63;;;;;;;;;;4999514;28;20050;-62
2023/12/23 13:59:16;;;;;;;16.20;2.45;;;;;;;;;;4997726;28;20100;-62
2023/12/23 14:01:42;;;;;;;20.10;1.90;;;;;;;;;;4997465;28;20490;-61
2023/12/23 14:04:08;;;;;;;18.40;1.70;;;;;;;;;;4990097;28;20066;-61
2023/12/23 14:06:34;;;;;;;9.77;1.70;;;;;;;;;;4994359;28;20041;-61
2023/12/23 14:09:00;;;;;;;16.27;1.52;;;;;;;;;;4992014;28;20574;-62
2023/12/23 14:11:26;;;;;;;20.95;2.53;;;;;;;;;;4997165;28;20042;-61
2023/12/23 14:13:52;;;;;;;13.93;2.40;;;;;;;;;;4987194;28;20451;-61
2023/12/23 14:16:18;;;;;;;18.17;2.10;;;;;;;;;;4988147;28;20046;-61
2023/12/23 14:18:44;;;;;;;13.15;1.63;;;;;;;;;;4990523;28;20500;-61
2023/12/23 14:21:10;;;;;;;16.38;2.15;;;;;;;;;;4996303;28;20061;-61
2023/12/23 14:23:36;;;;;;;20.45;2.42;;;;;;;;;;4999601;28;20275;-61
2023/12/23 14:26:02;;;;;;;13.73;1.98;;;;;;;;;;4983024;28;20038;-61
2023/12/23 14:28:28;;;;;;;14.10;3.13;;;;;;;;;;4998788;28;20760;-61
2023/12/23 14:30:54;;;;;;;20.55;2.25;;;;;;;;;;4997323;28;20050;-61